Upper Hoh, Washington
Current Conditions -  °F | °C
As of 6:53 AM on Friday 28 Nov 2014 (Local Time) from KUIL Reporting Station
Light Rain Light Rain  
Wind Chill: 44°   Ceiling: 4600
Heat Index: 44°   Visibility: 3mi
Dew Point: 44°   Wind: 0mph
Humidity: 100%   Direction: NA
Pressure: 29.58"   Gusts: NA
Location:  47.9519°N, 124.29°W
Report Text: KUIL 281453Z AUTO 00000KT 3SM -RA BR FEW024 SCT033 OVC046 07/07 A2958 RMK AO2 SLP017 P0006 60017 T00670067 56009
Loading
Personal Weather Stations






























Interactive Weather Map New forecast layout! Learn more

10-Day Weather Forecast

Advertisements
Track Severe Weather on mobile